Unalaska, AK (99685)

8:53 AM AKST on February 07, 2016 (GMT -0900)
Dutch Harbor | | Change Station
CLOSE
Current Station
Airport
Location: Dutch Harbor,
Elevation: 13 ft
Nearby Weather Stations

Elev 13 ft 53.90 °N, 166.54 °W | Updated 20 minutes ago

Overcast
Overcast
34 °F
Feels Like 34 °F
N
0
Wind Variable Wind from North

Today
High -- | Low -- °F
--% Chance of Precip.
Yesterday
High -- | Low -- °F
Precip. -- in
Pressure 29.61 in
Visibility 10.0 miles
Clouds Mostly Cloudy 2400 ft
Overcast 5000 ft
Dew Point 27 °F
Humidity 75%
Rainfall 0.00 in
Snow Depth Not available.
9:42 AM 7:00 PM
Waning Crescent, 1% visible
SPECI PADU 071733Z 00000KT 10SM BKN024 OVC050 01/M03 A2961 RMK AO2
Pressure 29.61 in
Visibility 10.0 miles
Clouds Mostly Cloudy 2400 ft
Overcast 5000 ft
Dew Point 27 °F
Humidity 75%
Rainfall 0.00 in
Snow Depth Not available.
9:42 AM 7:00 PM
Waning Crescent, 1% visible
SPECI PADU 071733Z 00000KT 10SM BKN024 OVC050 01/M03 A2961 RMK AO2

10-Day Weather Forecast

Almanac

Astronomy

Feb. 07, 2016 Rise Set
Actual Time
Civil Twilight
Nautical Twilight
Astronomical Twilight
Moon
Length of Visible Light
Length of Day
Tomorrow will be .
, % of the Moon is Illuminated

Today's Extremes

State Highs State Lows

Community

WunderPhotos

Upload Photos

1,891,248 photos uploaded!

WunderBlog® & News

Nearby

Air Quality

  Air Quality AQ Index Pollutant
Not available.

Snow Depth

Station Depth Elevation

Earthquake Activity

City Distance Mag. Time & Date
Minimum magnitude displayed is 2.5.

Coastal Water Temperatures

Place Temperature

Stations

Nearby Weather Stations

Station Location Temp. Windchill Dew Point Humidity Wind Precip. Elev Updated Type
                   

Watches & Warnings

There are currently no watches in effect.